sensor_id;sensor_type;location;lat;lon;timestamp;temperature;humidity
74792;SHT30;63319;46.046;17.802;2023-04-03T00:00:57;22.53;42.08
74792;SHT30;63319;46.046;17.802;2023-04-03T00:04:00;22.53;41.87
74792;SHT30;63319;46.046;17.802;2023-04-03T00:07:03;22.55;42.13
74792;SHT30;63319;46.046;17.802;2023-04-03T00:10:06;22.53;42.13
74792;SHT30;63319;46.046;17.802;2023-04-03T00:13:09;22.52;42.08
74792;SHT30;63319;46.046;17.802;2023-04-03T00:16:13;22.52;42.09
74792;SHT30;63319;46.046;17.802;2023-04-03T00:19:15;22.49;42.04
74792;SHT30;63319;46.046;17.802;2023-04-03T00:22:18;22.48;42.10
74792;SHT30;63319;46.046;17.802;2023-04-03T00:25:22;22.45;41.87
74792;SHT30;63319;46.046;17.802;2023-04-03T00:28:25;22.46;42.08
74792;SHT30;63319;46.046;17.802;2023-04-03T00:31:28;22.48;42.07
74792;SHT30;63319;46.046;17.802;2023-04-03T00:34:31;22.42;41.92
74792;SHT30;63319;46.046;17.802;2023-04-03T00:37:34;22.45;41.94
74792;SHT30;63319;46.046;17.802;2023-04-03T00:40:39;22.45;41.90
74792;SHT30;63319;46.046;17.802;2023-04-03T00:43:44;22.43;41.87
74792;SHT30;63319;46.046;17.802;2023-04-03T00:46:47;22.41;42.12
74792;SHT30;63319;46.046;17.802;2023-04-03T00:49:50;22.41;42.06
74792;SHT30;63319;46.046;17.802;2023-04-03T00:52:55;22.43;42.05
74792;SHT30;63319;46.046;17.802;2023-04-03T00:55:59;22.39;42.26
74792;SHT30;63319;46.046;17.802;2023-04-03T01:02:08;22.38;42.14
74792;SHT30;63319;46.046;17.802;2023-04-03T01:05:11;22.38;42.22
74792;SHT30;63319;46.046;17.802;2023-04-03T01:08:15;22.36;42.26
74792;SHT30;63319;46.046;17.802;2023-04-03T01:11:18;22.39;42.14
74792;SHT30;63319;46.046;17.802;2023-04-03T01:14:21;22.41;42.15
74792;SHT30;63319;46.046;17.802;2023-04-03T01:17:36;22.39;42.17
74792;SHT30;63319;46.046;17.802;2023-04-03T01:24:31;22.36;42.24
74792;SHT30;63319;46.046;17.802;2023-04-03T01:27:36;22.42;42.18
74792;SHT30;63319;46.046;17.802;2023-04-03T01:34:07;22.39;42.19
74792;SHT30;63319;46.046;17.802;2023-04-03T01:37:10;22.38;41.97
74792;SHT30;63319;46.046;17.802;2023-04-03T01:40:13;22.41;42.07
74792;SHT30;63319;46.046;17.802;2023-04-03T01:43:16;22.41;42.17
74792;SHT30;63319;46.046;17.802;2023-04-03T01:46:19;22.41;42.07
74792;SHT30;63319;46.046;17.802;2023-04-03T01:49:22;22.38;42.16
74792;SHT30;63319;46.046;17.802;2023-04-03T01:52:25;22.42;42.06
74792;SHT30;63319;46.046;17.802;2023-04-03T01:55:28;22.38;42.10
74792;SHT30;63319;46.046;17.802;2023-04-03T01:58:31;22.38;42.17
74792;SHT30;63319;46.046;17.802;2023-04-03T02:01:34;22.41;42.13
74792;SHT30;63319;46.046;17.802;2023-04-03T02:04:37;22.42;42.05
74792;SHT30;63319;46.046;17.802;2023-04-03T02:07:40;22.41;42.08
74792;SHT30;63319;46.046;17.802;2023-04-03T02:10:44;22.41;42.06
74792;SHT30;63319;46.046;17.802;2023-04-03T02:13:48;22.39;41.97
74792;SHT30;63319;46.046;17.802;2023-04-03T02:16:50;22.43;41.99
74792;SHT30;63319;46.046;17.802;2023-04-03T02:19:53;22.42;42.01
74792;SHT30;63319;46.046;17.802;2023-04-03T02:22:56;22.43;41.99
74792;SHT30;63319;46.046;17.802;2023-04-03T02:26:07;22.43;41.96
74792;SHT30;63319;46.046;17.802;2023-04-03T02:29:11;22.45;41.90
74792;SHT30;63319;46.046;17.802;2023-04-03T02:32:17;22.38;42.00
74792;SHT30;63319;46.046;17.802;2023-04-03T02:35:21;22.42;41.93
74792;SHT30;63319;46.046;17.802;2023-04-03T02:38:24;22.43;41.97
74792;SHT30;63319;46.046;17.802;2023-04-03T02:41:28;22.43;41.93
74792;SHT30;63319;46.046;17.802;2023-04-03T02:44:39;22.43;41.93
74792;SHT30;63319;46.046;17.802;2023-04-03T02:47:44;22.43;41.93
74792;SHT30;63319;46.046;17.802;2023-04-03T02:50:47;22.41;41.94
74792;SHT30;63319;46.046;17.802;2023-04-03T02:53:50;22.39;41.92
74792;SHT30;63319;46.046;17.802;2023-04-03T02:56:58;22.39;41.80
74792;SHT30;63319;46.046;17.802;2023-04-03T03:00:01;22.41;41.90
74792;SHT30;63319;46.046;17.802;2023-04-03T03:03:04;22.41;41.83
74792;SHT30;63319;46.046;17.802;2023-04-03T03:06:10;22.42;41.77
74792;SHT30;63319;46.046;17.802;2023-04-03T03:09:14;22.38;41.86
74792;SHT30;63319;46.046;17.802;2023-04-03T03:12:17;22.39;41.89
74792;SHT30;63319;46.046;17.802;2023-04-03T03:15:24;22.36;41.81
74792;SHT30;63319;46.046;17.802;2023-04-03T03:18:27;22.39;41.76
74792;SHT30;63319;46.046;17.802;2023-04-03T03:21:30;22.39;41.81
74792;SHT30;63319;46.046;17.802;2023-04-03T03:24:33;22.39;41.76
74792;SHT30;63319;46.046;17.802;2023-04-03T03:27:36;22.36;41.84
74792;SHT30;63319;46.046;17.802;2023-04-03T03:30:39;22.41;41.80
74792;SHT30;63319;46.046;17.802;2023-04-03T03:33:42;22.38;41.81
74792;SHT30;63319;46.046;17.802;2023-04-03T03:36:45;22.38;41.79
74792;SHT30;63319;46.046;17.802;2023-04-03T03:39:48;22.39;41.81
74792;SHT30;63319;46.046;17.802;2023-04-03T03:42:51;22.41;41.77
74792;SHT30;63319;46.046;17.802;2023-04-03T03:45:55;22.39;41.83
74792;SHT30;63319;46.046;17.802;2023-04-03T03:49:00;22.39;41.88
74792;SHT30;63319;46.046;17.802;2023-04-03T03:52:11;22.39;41.81
74792;SHT30;63319;46.046;17.802;2023-04-03T03:55:14;22.41;41.81
74792;SHT30;63319;46.046;17.802;2023-04-03T03:58:17;22.36;41.82
74792;SHT30;63319;46.046;17.802;2023-04-03T04:01:20;22.39;41.86
74792;SHT30;63319;46.046;17.802;2023-04-03T04:04:24;22.36;41.73
74792;SHT30;63319;46.046;17.802;2023-04-03T04:07:27;22.36;41.76
74792;SHT30;63319;46.046;17.802;2023-04-03T04:10:33;22.39;41.65
74792;SHT30;63319;46.046;17.802;2023-04-03T04:13:37;22.38;41.86
74792;SHT30;63319;46.046;17.802;2023-04-03T04:16:40;22.36;41.70
74792;SHT30;63319;46.046;17.802;2023-04-03T04:19:49;22.35;41.82
74792;SHT30;63319;46.046;17.802;2023-04-03T04:22:52;22.38;41.54
74792;SHT30;63319;46.046;17.802;2023-04-03T04:25:56;22.36;41.74
74792;SHT30;63319;46.046;17.802;2023-04-03T04:28:59;22.36;41.70
74792;SHT30;63319;46.046;17.802;2023-04-03T04:32:03;22.36;41.76
74792;SHT30;63319;46.046;17.802;2023-04-03T04:35:07;22.35;41.79
74792;SHT30;63319;46.046;17.802;2023-04-03T04:38:14;22.35;41.75
74792;SHT30;63319;46.046;17.802;2023-04-03T04:41:17;22.35;41.68
74792;SHT30;63319;46.046;17.802;2023-04-03T04:44:21;22.38;41.59
74792;SHT30;63319;46.046;17.802;2023-04-03T04:47:24;22.38;41.74
74792;SHT30;63319;46.046;17.802;2023-04-03T04:50:27;22.33;41.76
74792;SHT30;63319;46.046;17.802;2023-04-03T04:53:30;22.36;41.74
74792;SHT30;63319;46.046;17.802;2023-04-03T04:56:33;22.36;41.70
74792;SHT30;63319;46.046;17.802;2023-04-03T04:59:36;22.36;41.64
74792;SHT30;63319;46.046;17.802;2023-04-03T05:02:41;22.38;41.65
74792;SHT30;63319;46.046;17.802;2023-04-03T05:05:44;22.39;41.74
74792;SHT30;63319;46.046;17.802;2023-04-03T05:08:48;22.41;41.64
74792;SHT30;63319;46.046;17.802;2023-04-03T05:11:51;22.41;41.70
74792;SHT30;63319;46.046;17.802;2023-04-03T05:14:58;22.42;41.64
74792;SHT30;63319;46.046;17.802;2023-04-03T05:18:02;22.41;41.63
74792;SHT30;63319;46.046;17.802;2023-04-03T05:21:06;22.43;41.63
74792;SHT30;63319;46.046;17.802;2023-04-03T05:24:08;22.45;41.65
74792;SHT30;63319;46.046;17.802;2023-04-03T05:27:15;22.43;41.50
74792;SHT30;63319;46.046;17.802;2023-04-03T05:30:20;22.46;41.56
74792;SHT30;63319;46.046;17.802;2023-04-03T05:33:25;22.45;41.40
74792;SHT30;63319;46.046;17.802;2023-04-03T05:36:31;22.43;41.47
74792;SHT30;63319;46.046;17.802;2023-04-03T05:39:39;22.46;41.55
74792;SHT30;63319;46.046;17.802;2023-04-03T05:42:45;22.45;41.47
74792;SHT30;63319;46.046;17.802;2023-04-03T05:45:48;22.48;41.46
74792;SHT30;63319;46.046;17.802;2023-04-03T05:48:52;22.48;41.51
74792;SHT30;63319;46.046;17.802;2023-04-03T05:51:57;22.49;41.41
74792;SHT30;63319;46.046;17.802;2023-04-03T05:55:04;22.52;41.36
74792;SHT30;63319;46.046;17.802;2023-04-03T05:58:09;22.55;41.37
74792;SHT30;63319;46.046;17.802;2023-04-03T06:01:14;22.59;41.26
74792;SHT30;63319;46.046;17.802;2023-04-03T06:04:19;22.60;41.28
74792;SHT30;63319;46.046;17.802;2023-04-03T06:07:24;22.62;41.16
74792;SHT30;63319;46.046;17.802;2023-04-03T06:10:31;22.64;41.12
74792;SHT30;63319;46.046;17.802;2023-04-03T06:13:35;22.63;41.14
74792;SHT30;63319;46.046;17.802;2023-04-03T06:16:38;22.66;41.11
74792;SHT30;63319;46.046;17.802;2023-04-03T06:19:42;22.71;41.33
74792;SHT30;63319;46.046;17.802;2023-04-03T06:22:45;22.70;41.39
74792;SHT30;63319;46.046;17.802;2023-04-03T06:25:48;22.74;41.91
74792;SHT30;63319;46.046;17.802;2023-04-03T06:28:51;22.74;42.07
74792;SHT30;63319;46.046;17.802;2023-04-03T06:31:54;22.76;41.48
74792;SHT30;63319;46.046;17.802;2023-04-03T06:34:58;22.80;42.18
74792;SHT30;63319;46.046;17.802;2023-04-03T06:38:01;22.84;41.85
74792;SHT30;63319;46.046;17.802;2023-04-03T06:41:04;22.86;41.06
74792;SHT30;63319;46.046;17.802;2023-04-03T06:44:07;22.96;41.26
74792;SHT30;63319;46.046;17.802;2023-04-03T06:47:14;22.98;41.11
74792;SHT30;63319;46.046;17.802;2023-04-03T06:50:18;23.10;40.97
74792;SHT30;63319;46.046;17.802;2023-04-03T06:53:21;23.17;40.83
74792;SHT30;63319;46.046;17.802;2023-04-03T06:56:25;23.25;40.53
74792;SHT30;63319;46.046;17.802;2023-04-03T06:59:28;23.29;40.97
74792;SHT30;63319;46.046;17.802;2023-04-03T07:02:32;23.38;40.76
74792;SHT30;63319;46.046;17.802;2023-04-03T07:05:35;23.51;40.53
74792;SHT30;63319;46.046;17.802;2023-04-03T07:08:39;23.61;40.22
74792;SHT30;63319;46.046;17.802;2023-04-03T07:11:42;23.63;40.11
74792;SHT30;63319;46.046;17.802;2023-04-03T07:14:45;23.69;39.95
74792;SHT30;63319;46.046;17.802;2023-04-03T07:17:48;23.77;39.89
74792;SHT30;63319;46.046;17.802;2023-04-03T07:20:51;23.83;39.71
74792;SHT30;63319;46.046;17.802;2023-04-03T07:23:54;23.90;39.57
74792;SHT30;63319;46.046;17.802;2023-04-03T07:26:57;23.94;39.41
74792;SHT30;63319;46.046;17.802;2023-04-03T07:30:00;23.96;39.39
74792;SHT30;63319;46.046;17.802;2023-04-03T07:33:03;23.96;39.41
74792;SHT30;63319;46.046;17.802;2023-04-03T07:36:07;23.96;39.49
74792;SHT30;63319;46.046;17.802;2023-04-03T07:39:10;23.94;39.49
74792;SHT30;63319;46.046;17.802;2023-04-03T07:42:13;23.94;39.46
74792;SHT30;63319;46.046;17.802;2023-04-03T07:45:16;23.90;39.36
74792;SHT30;63319;46.046;17.802;2023-04-03T07:48:21;23.90;39.56
74792;SHT30;63319;46.046;17.802;2023-04-03T07:51:41;23.89;39.62
74792;SHT30;63319;46.046;17.802;2023-04-03T07:54:45;23.86;39.69
74792;SHT30;63319;46.046;17.802;2023-04-03T07:57:48;23.86;39.69
74792;SHT30;63319;46.046;17.802;2023-04-03T08:00:53;23.87;39.62
74792;SHT30;63319;46.046;17.802;2023-04-03T08:03:56;23.85;39.62
74792;SHT30;63319;46.046;17.802;2023-04-03T08:06:59;23.83;39.73
74792;SHT30;63319;46.046;17.802;2023-04-03T08:10:02;23.80;39.72
74792;SHT30;63319;46.046;17.802;2023-04-03T08:13:06;23.82;39.78
74792;SHT30;63319;46.046;17.802;2023-04-03T08:16:16;23.79;39.84
74792;SHT30;63319;46.046;17.802;2023-04-03T08:19:20;23.85;39.75
74792;SHT30;63319;46.046;17.802;2023-04-03T08:22:29;23.85;39.67
74792;SHT30;63319;46.046;17.802;2023-04-03T08:25:33;23.86;39.53
74792;SHT30;63319;46.046;17.802;2023-04-03T08:28:37;23.93;39.70
74792;SHT30;63319;46.046;17.802;2023-04-03T08:31:40;23.97;39.63
74792;SHT30;63319;46.046;17.802;2023-04-03T08:34:43;24.00;39.77
74792;SHT30;63319;46.046;17.802;2023-04-03T08:37:46;24.03;39.82
74792;SHT30;63319;46.046;17.802;2023-04-03T08:41:15;24.03;39.96
74792;SHT30;63319;46.046;17.802;2023-04-03T08:44:54;24.04;40.06
74792;SHT30;63319;46.046;17.802;2023-04-03T08:51:20;24.06;40.25
74792;SHT30;63319;46.046;17.802;2023-04-03T08:54:31;24.06;40.34
74792;SHT30;63319;46.046;17.802;2023-04-03T08:57:40;24.06;40.44
74792;SHT30;63319;46.046;17.802;2023-04-03T09:03:50;24.09;40.32
74792;SHT30;63319;46.046;17.802;2023-04-03T09:06:57;24.09;40.40
74792;SHT30;63319;46.046;17.802;2023-04-03T09:10:02;24.13;40.22
74792;SHT30;63319;46.046;17.802;2023-04-03T09:23:00;24.06;40.17
74792;SHT30;63319;46.046;17.802;2023-04-03T09:26:08;24.04;40.15
74792;SHT30;63319;46.046;17.802;2023-04-03T09:29:17;24.10;40.05
74792;SHT30;63319;46.046;17.802;2023-04-03T09:32:34;24.12;40.04
74792;SHT30;63319;46.046;17.802;2023-04-03T09:35:40;24.10;39.96
74792;SHT30;63319;46.046;17.802;2023-04-03T09:39:03;24.23;39.69
74792;SHT30;63319;46.046;17.802;2023-04-03T09:42:39;24.45;39.30
74792;SHT30;63319;46.046;17.802;2023-04-03T09:45:49;24.57;39.01
74792;SHT30;63319;46.046;17.802;2023-04-03T09:48:59;24.50;39.21
74792;SHT30;63319;46.046;17.802;2023-04-03T09:52:25;24.43;39.47
74792;SHT30;63319;46.046;17.802;2023-04-03T09:55:28;24.38;39.77
74792;SHT30;63319;46.046;17.802;2023-04-03T09:58:37;24.40;39.86
74792;SHT30;63319;46.046;17.802;2023-04-03T10:02:04;24.65;39.87
74792;SHT30;63319;46.046;17.802;2023-04-03T10:05:40;24.98;39.57
74792;SHT30;63319;46.046;17.802;2023-04-03T10:08:59;24.88;39.95
74792;SHT30;63319;46.046;17.802;2023-04-03T10:12:10;24.83;40.31
74792;SHT30;63319;46.046;17.802;2023-04-03T10:15:16;24.81;40.63
74792;SHT30;63319;46.046;17.802;2023-04-03T10:21:49;25.06;39.84
74792;SHT30;63319;46.046;17.802;2023-04-03T10:28:11;25.05;40.48
74792;SHT30;63319;46.046;17.802;2023-04-03T10:34:33;25.13;40.63
74792;SHT30;63319;46.046;17.802;2023-04-03T10:38:01;25.12;40.88
74792;SHT30;63319;46.046;17.802;2023-04-03T10:48:44;25.03;41.04
74792;SHT30;63319;46.046;17.802;2023-04-03T10:52:00;25.05;41.07
74792;SHT30;63319;46.046;17.802;2023-04-03T10:58:26;25.08;41.04
74792;SHT30;63319;46.046;17.802;2023-04-03T11:01:34;25.08;41.03
74792;SHT30;63319;46.046;17.802;2023-04-03T11:04:40;25.08;41.09
74792;SHT30;63319;46.046;17.802;2023-04-03T11:07:50;25.08;40.96
74792;SHT30;63319;46.046;17.802;2023-04-03T11:11:00;25.15;40.86
74792;SHT30;63319;46.046;17.802;2023-04-03T11:20:28;25.09;40.70
74792;SHT30;63319;46.046;17.802;2023-04-03T11:23:39;24.98;40.86
74792;SHT30;63319;46.046;17.802;2023-04-03T11:26:53;24.93;40.90
74792;SHT30;63319;46.046;17.802;2023-04-03T11:29:57;24.91;40.90
74792;SHT30;63319;46.046;17.802;2023-04-03T11:36:45;24.92;40.81
74792;SHT30;63319;46.046;17.802;2023-04-03T11:39:57;24.88;40.84
74792;SHT30;63319;46.046;17.802;2023-04-03T11:43:39;24.82;40.82
74792;SHT30;63319;46.046;17.802;2023-04-03T11:46:59;24.79;40.73
74792;SHT30;63319;46.046;17.802;2023-04-03T11:50:04;24.73;40.73
74792;SHT30;63319;46.046;17.802;2023-04-03T11:59:37;24.64;40.79
74792;SHT30;63319;46.046;17.802;2023-04-03T12:02:40;24.62;40.65
74792;SHT30;63319;46.046;17.802;2023-04-03T12:09:27;24.57;40.60
74792;SHT30;63319;46.046;17.802;2023-04-03T12:12:36;24.55;40.67
74792;SHT30;63319;46.046;17.802;2023-04-03T12:15:49;24.55;40.66
74792;SHT30;63319;46.046;17.802;2023-04-03T12:25:46;24.48;40.74
74792;SHT30;63319;46.046;17.802;2023-04-03T12:28:55;24.48;40.69
74792;SHT30;63319;46.046;17.802;2023-04-03T12:39:01;24.47;45.40
74792;SHT30;63319;46.046;17.802;2023-04-03T12:42:52;24.37;42.01
74792;SHT30;63319;46.046;17.802;2023-04-03T12:49:34;24.34;44.80
74792;SHT30;63319;46.046;17.802;2023-04-03T12:52:45;24.35;46.08
74792;SHT30;63319;46.046;17.802;2023-04-03T12:55:57;24.35;46.64
74792;SHT30;63319;46.046;17.802;2023-04-03T12:59:23;24.41;46.98
74792;SHT30;63319;46.046;17.802;2023-04-03T13:02:29;24.43;46.94
74792;SHT30;63319;46.046;17.802;2023-04-03T13:05:33;24.45;46.80
74792;SHT30;63319;46.046;17.802;2023-04-03T13:08:48;24.44;46.55
74792;SHT30;63319;46.046;17.802;2023-04-03T13:12:01;24.45;46.29
74792;SHT30;63319;46.046;17.802;2023-04-03T13:15:20;24.44;45.91
74792;SHT30;63319;46.046;17.802;2023-04-03T13:18:26;24.44;45.96
74792;SHT30;63319;46.046;17.802;2023-04-03T13:21:31;24.45;45.64
74792;SHT30;63319;46.046;17.802;2023-04-03T13:24:37;24.48;45.48
74792;SHT30;63319;46.046;17.802;2023-04-03T13:27:41;24.45;45.32
74792;SHT30;63319;46.046;17.802;2023-04-03T13:31:26;24.41;45.14
74792;SHT30;63319;46.046;17.802;2023-04-03T13:34:37;24.43;45.08
74792;SHT30;63319;46.046;17.802;2023-04-03T13:37:54;24.40;44.93
74792;SHT30;63319;46.046;17.802;2023-04-03T13:41:00;24.35;44.82
74792;SHT30;63319;46.046;17.802;2023-04-03T13:47:25;24.33;44.63
74792;SHT30;63319;46.046;17.802;2023-04-03T13:51:05;24.33;44.63
74792;SHT30;63319;46.046;17.802;2023-04-03T13:54:21;24.31;44.59
74792;SHT30;63319;46.046;17.802;2023-04-03T13:57:24;24.31;44.41
74792;SHT30;63319;46.046;17.802;2023-04-03T14:00:37;24.27;44.34
74792;SHT30;63319;46.046;17.802;2023-04-03T14:03:45;24.28;44.37
74792;SHT30;63319;46.046;17.802;2023-04-03T14:06:48;24.24;44.11
74792;SHT30;63319;46.046;17.802;2023-04-03T14:09:52;24.20;44.21
74792;SHT30;63319;46.046;17.802;2023-04-03T14:12:55;24.17;44.16
74792;SHT30;63319;46.046;17.802;2023-04-03T14:15:59;24.14;43.98
74792;SHT30;63319;46.046;17.802;2023-04-03T14:19:22;24.13;43.99
74792;SHT30;63319;46.046;17.802;2023-04-03T14:22:31;24.14;43.96
74792;SHT30;63319;46.046;17.802;2023-04-03T14:25:35;24.13;43.88
74792;SHT30;63319;46.046;17.802;2023-04-03T14:28:38;24.10;43.84
74792;SHT30;63319;46.046;17.802;2023-04-03T14:31:46;24.09;43.71
74792;SHT30;63319;46.046;17.802;2023-04-03T14:34:51;24.07;43.70
74792;SHT30;63319;46.046;17.802;2023-04-03T14:37:54;24.06;43.56
74792;SHT30;63319;46.046;17.802;2023-04-03T14:40:58;24.03;43.45
74792;SHT30;63319;46.046;17.802;2023-04-03T14:44:17;24.04;43.42
74792;SHT30;63319;46.046;17.802;2023-04-03T14:47:23;24.02;43.50
74792;SHT30;63319;46.046;17.802;2023-04-03T14:50:33;23.97;43.56
74792;SHT30;63319;46.046;17.802;2023-04-03T14:53:36;23.97;43.51
74792;SHT30;63319;46.046;17.802;2023-04-03T14:56:41;23.94;43.54
74792;SHT30;63319;46.046;17.802;2023-04-03T14:59:45;23.90;43.59
74792;SHT30;63319;46.046;17.802;2023-04-03T15:02:48;23.89;43.52
74792;SHT30;63319;46.046;17.802;2023-04-03T15:05:51;23.87;43.45
74792;SHT30;63319;46.046;17.802;2023-04-03T15:08:54;23.86;43.45
74792;SHT30;63319;46.046;17.802;2023-04-03T15:11:56;23.83;43.47
74792;SHT30;63319;46.046;17.802;2023-04-03T15:14:59;23.86;43.46
74792;SHT30;63319;46.046;17.802;2023-04-03T15:18:06;23.80;43.44
74792;SHT30;63319;46.046;17.802;2023-04-03T15:21:09;23.79;43.43
74792;SHT30;63319;46.046;17.802;2023-04-03T15:24:12;23.79;43.42
74792;SHT30;63319;46.046;17.802;2023-04-03T15:27:15;23.77;43.31
74792;SHT30;63319;46.046;17.802;2023-04-03T15:30:18;23.77;43.36
74792;SHT30;63319;46.046;17.802;2023-04-03T15:33:22;23.77;43.38
74792;SHT30;63319;46.046;17.802;2023-04-03T15:36:25;23.75;43.33
74792;SHT30;63319;46.046;17.802;2023-04-03T15:39:36;23.70;43.35
74792;SHT30;63319;46.046;17.802;2023-04-03T15:42:39;23.73;43.30
74792;SHT30;63319;46.046;17.802;2023-04-03T15:45:42;23.67;43.27
74792;SHT30;63319;46.046;17.802;2023-04-03T15:48:45;23.67;43.25
74792;SHT30;63319;46.046;17.802;2023-04-03T15:51:48;23.69;43.23
74792;SHT30;63319;46.046;17.802;2023-04-03T15:54:51;23.66;43.22
74792;SHT30;63319;46.046;17.802;2023-04-03T15:57:54;23.66;43.10
74792;SHT30;63319;46.046;17.802;2023-04-03T16:01:00;23.65;43.08
74792;SHT30;63319;46.046;17.802;2023-04-03T16:04:04;23.63;43.08
74792;SHT30;63319;46.046;17.802;2023-04-03T16:07:07;23.59;43.09
74792;SHT30;63319;46.046;17.802;2023-04-03T16:10:12;23.55;43.09
74792;SHT30;63319;46.046;17.802;2023-04-03T16:13:15;23.51;43.15
74792;SHT30;63319;46.046;17.802;2023-04-03T16:16:17;23.48;43.15
74792;SHT30;63319;46.046;17.802;2023-04-03T16:19:20;23.51;43.13
74792;SHT30;63319;46.046;17.802;2023-04-03T16:22:28;23.48;43.14
74792;SHT30;63319;46.046;17.802;2023-04-03T16:25:31;23.46;43.14
74792;SHT30;63319;46.046;17.802;2023-04-03T16:28:35;23.45;43.06
74792;SHT30;63319;46.046;17.802;2023-04-03T16:31:38;23.42;42.97
74792;SHT30;63319;46.046;17.802;2023-04-03T16:34:41;23.37;43.13
74792;SHT30;63319;46.046;17.802;2023-04-03T16:37:44;23.35;42.89
74792;SHT30;63319;46.046;17.802;2023-04-03T16:40:47;23.34;43.04
74792;SHT30;63319;46.046;17.802;2023-04-03T16:43:51;23.31;43.20
74792;SHT30;63319;46.046;17.802;2023-04-03T16:46:54;23.28;43.17
74792;SHT30;63319;46.046;17.802;2023-04-03T16:49:57;23.27;42.86
74792;SHT30;63319;46.046;17.802;2023-04-03T16:53:01;23.24;43.14
74792;SHT30;63319;46.046;17.802;2023-04-03T16:56:05;23.19;43.07
74792;SHT30;63319;46.046;17.802;2023-04-03T16:59:08;23.22;43.27
74792;SHT30;63319;46.046;17.802;2023-04-03T17:02:11;23.19;43.16
74792;SHT30;63319;46.046;17.802;2023-04-03T17:05:14;23.15;43.19
74792;SHT30;63319;46.046;17.802;2023-04-03T17:08:17;23.17;43.10
74792;SHT30;63319;46.046;17.802;2023-04-03T17:11:20;23.12;43.22
74792;SHT30;63319;46.046;17.802;2023-04-03T17:14:24;23.14;43.05
74792;SHT30;63319;46.046;17.802;2023-04-03T17:17:27;23.08;43.31
74792;SHT30;63319;46.046;17.802;2023-04-03T17:20:30;23.08;43.32
74792;SHT30;63319;46.046;17.802;2023-04-03T17:23:36;23.07;43.29
74792;SHT30;63319;46.046;17.802;2023-04-03T17:26:41;23.07;43.38
74792;SHT30;63319;46.046;17.802;2023-04-03T17:29:44;23.06;43.22
74792;SHT30;63319;46.046;17.802;2023-04-03T17:32:47;23.04;43.31
74792;SHT30;63319;46.046;17.802;2023-04-03T17:35:51;23.04;43.37
74792;SHT30;63319;46.046;17.802;2023-04-03T17:38:54;23.04;43.34
74792;SHT30;63319;46.046;17.802;2023-04-03T17:41:59;23.00;43.38
74792;SHT30;63319;46.046;17.802;2023-04-03T17:45:03;23.01;43.32
74792;SHT30;63319;46.046;17.802;2023-04-03T17:48:08;22.98;43.40
74792;SHT30;63319;46.046;17.802;2023-04-03T17:51:13;22.97;43.41
74792;SHT30;63319;46.046;17.802;2023-04-03T17:54:17;22.91;43.36
74792;SHT30;63319;46.046;17.802;2023-04-03T17:57:20;22.91;43.37
74792;SHT30;63319;46.046;17.802;2023-04-03T18:00:24;22.93;43.41
74792;SHT30;63319;46.046;17.802;2023-04-03T18:03:27;22.91;43.36
74792;SHT30;63319;46.046;17.802;2023-04-03T18:06:33;22.93;43.41
74792;SHT30;63319;46.046;17.802;2023-04-03T18:09:40;22.90;43.37
74792;SHT30;63319;46.046;17.802;2023-04-03T18:12:44;22.91;43.41
74792;SHT30;63319;46.046;17.802;2023-04-03T18:15:49;22.91;43.42
74792;SHT30;63319;46.046;17.802;2023-04-03T18:18:53;22.91;43.34
74792;SHT30;63319;46.046;17.802;2023-04-03T18:22:18;22.91;43.33
74792;SHT30;63319;46.046;17.802;2023-04-03T18:25:22;22.89;43.40
74792;SHT30;63319;46.046;17.802;2023-04-03T18:28:28;22.87;43.27
74792;SHT30;63319;46.046;17.802;2023-04-03T18:31:37;22.87;43.31
74792;SHT30;63319;46.046;17.802;2023-04-03T18:34:43;22.87;43.30
74792;SHT30;63319;46.046;17.802;2023-04-03T18:37:48;22.83;43.31
74792;SHT30;63319;46.046;17.802;2023-04-03T18:40:52;22.84;43.31
74792;SHT30;63319;46.046;17.802;2023-04-03T18:44:01;22.86;43.22
74792;SHT30;63319;46.046;17.802;2023-04-03T18:47:07;22.81;43.17
74792;SHT30;63319;46.046;17.802;2023-04-03T18:50:15;22.83;43.25
74792;SHT30;63319;46.046;17.802;2023-04-03T18:53:21;22.83;43.21
74792;SHT30;63319;46.046;17.802;2023-04-03T18:56:26;22.81;43.12
74792;SHT30;63319;46.046;17.802;2023-04-03T18:59:31;22.80;43.22
74792;SHT30;63319;46.046;17.802;2023-04-03T19:02:37;22.79;43.18
74792;SHT30;63319;46.046;17.802;2023-04-03T19:05:41;22.77;43.15
74792;SHT30;63319;46.046;17.802;2023-04-03T19:08:47;22.77;43.20
74792;SHT30;63319;46.046;17.802;2023-04-03T19:11:51;22.76;43.11
74792;SHT30;63319;46.046;17.802;2023-04-03T19:14:55;22.76;43.11
74792;SHT30;63319;46.046;17.802;2023-04-03T19:18:00;22.79;43.10
74792;SHT30;63319;46.046;17.802;2023-04-03T19:21:04;22.76;43.06
74792;SHT30;63319;46.046;17.802;2023-04-03T19:24:10;22.76;43.07
74792;SHT30;63319;46.046;17.802;2023-04-03T19:27:15;22.73;43.11
74792;SHT30;63319;46.046;17.802;2023-04-03T19:30:20;22.73;43.06
74792;SHT30;63319;46.046;17.802;2023-04-03T19:33:33;22.71;43.03
74792;SHT30;63319;46.046;17.802;2023-04-03T19:36:38;22.74;42.99
74792;SHT30;63319;46.046;17.802;2023-04-03T19:39:41;22.71;43.01
74792;SHT30;63319;46.046;17.802;2023-04-03T19:42:45;22.71;43.00
74792;SHT30;63319;46.046;17.802;2023-04-03T19:45:48;22.71;42.97
74792;SHT30;63319;46.046;17.802;2023-04-03T19:48:52;22.69;42.94
74792;SHT30;63319;46.046;17.802;2023-04-03T19:51:56;22.73;42.92
74792;SHT30;63319;46.046;17.802;2023-04-03T19:55:00;22.67;42.94
74792;SHT30;63319;46.046;17.802;2023-04-03T19:58:04;22.69;42.85
74792;SHT30;63319;46.046;17.802;2023-04-03T20:01:09;22.67;42.94
74792;SHT30;63319;46.046;17.802;2023-04-03T20:04:15;22.69;42.87
74792;SHT30;63319;46.046;17.802;2023-04-03T20:07:20;22.66;42.81
74792;SHT30;63319;46.046;17.802;2023-04-03T20:10:24;22.63;42.82
74792;SHT30;63319;46.046;17.802;2023-04-03T20:13:30;22.69;42.75
74792;SHT30;63319;46.046;17.802;2023-04-03T20:16:34;22.66;42.75
74792;SHT30;63319;46.046;17.802;2023-04-03T20:19:38;22.64;42.77
74792;SHT30;63319;46.046;17.802;2023-04-03T20:22:41;22.64;42.68
74792;SHT30;63319;46.046;17.802;2023-04-03T20:25:46;22.63;42.69
74792;SHT30;63319;46.046;17.802;2023-04-03T20:29:10;22.63;42.62
74792;SHT30;63319;46.046;17.802;2023-04-03T20:32:17;22.59;42.73
74792;SHT30;63319;46.046;17.802;2023-04-03T20:35:20;22.60;42.66
74792;SHT30;63319;46.046;17.802;2023-04-03T20:38:24;22.62;42.61
74792;SHT30;63319;46.046;17.802;2023-04-03T20:41:28;22.56;42.64
74792;SHT30;63319;46.046;17.802;2023-04-03T20:44:34;22.60;42.57